Time;durP1;ratioP1;P1;durP2;ratioP2;P2;SDS_P1;SDS_P2;PMS_P1;PMS_P2;Temp;Humidity;BMP_temperature;BMP_pressure;BME280_temperature;BME280_humidity;BME280_pressure;Samples;Min_cycle;Max_cycle;Signal;HPM_P1;HPM_P2
2022/01/10 00:00:07;;;;;;;10.20;8.00;;;;;;;;;;5070581;28;20418;-54
2022/01/10 00:02:33;;;;;;;17.13;9.07;;;;;;;;;;5071025;28;20433;-51
2022/01/10 00:04:59;;;;;;;12.57;9.40;;;;;;;;;;5075703;28;20504;-55
2022/01/10 00:07:25;;;;;;;14.77;9.03;;;;;;;;;;5075568;28;20418;-53
2022/01/10 00:09:51;;;;;;;14.93;9.13;;;;;;;;;;5074229;28;20414;-51
2022/01/10 00:12:17;;;;;;;16.83;9.80;;;;;;;;;;5075456;28;20464;-54
2022/01/10 00:14:44;;;;;;;17.47;8.43;;;;;;;;;;5075615;28;20410;-53
2022/01/10 00:17:10;;;;;;;21.83;9.40;;;;;;;;;;5074009;28;20445;-52
2022/01/10 00:19:36;;;;;;;16.77;9.20;;;;;;;;;;5075260;28;20410;-53
2022/01/10 00:22:02;;;;;;;15.60;8.70;;;;;;;;;;5074951;28;20474;-53
2022/01/10 00:24:28;;;;;;;13.40;8.50;;;;;;;;;;5075299;28;20422;-53
2022/01/10 00:26:54;;;;;;;19.97;9.47;;;;;;;;;;5075347;28;20406;-54
2022/01/10 00:29:20;;;;;;;20.53;9.70;;;;;;;;;;5075216;28;20459;-52
2022/01/10 00:31:46;;;;;;;17.60;9.30;;;;;;;;;;5073803;28;20515;-53
2022/01/10 00:34:12;;;;;;;14.10;8.80;;;;;;;;;;5075162;28;20403;-55
2022/01/10 00:36:38;;;;;;;18.60;9.17;;;;;;;;;;5075193;28;20434;-56
2022/01/10 00:39:04;;;;;;;19.40;9.63;;;;;;;;;;5073814;28;20886;-58
2022/01/10 00:41:30;;;;;;;12.10;8.20;;;;;;;;;;5073691;28;20466;-56
2022/01/10 00:43:57;;;;;;;14.17;8.30;;;;;;;;;;5074999;28;20398;-54
2022/01/10 00:46:23;;;;;;;17.63;9.17;;;;;;;;;;5073701;28;20419;-58
2022/01/10 00:48:49;;;;;;;18.07;9.00;;;;;;;;;;5074846;28;20966;-52
2022/01/10 00:51:15;;;;;;;17.93;9.20;;;;;;;;;;5075130;28;20423;-59
2022/01/10 00:53:43;;;;;;;15.60;9.37;;;;;;;;;;5074952;28;20414;-52
2022/01/10 00:56:10;;;;;;;15.17;8.87;;;;;;;;;;5074736;28;20422;-53
2022/01/10 00:58:36;;;;;;;13.67;8.70;;;;;;;;;;5074673;28;20406;-56
2022/01/10 01:01:03;;;;;;;17.43;9.50;;;;;;;;;;5073219;28;20565;-57
2022/01/10 01:03:29;;;;;;;13.17;8.50;;;;;;;;;;5074616;28;20403;-57
2022/01/10 01:05:55;;;;;;;11.73;8.00;;;;;;;;;;5074497;28;20411;-59
2022/01/10 01:08:21;;;;;;;17.90;7.90;;;;;;;;;;5074595;28;20407;-56
2022/01/10 01:13:26;;;;;;;13.60;9.00;;;;;;;;;;5074872;28;20415;-57
2022/01/10 01:16:09;;;;;;;24.07;10.00;;;;;;;;;;5073719;28;20422;-55
2022/01/10 01:24:06;;;;;;;13.70;9.23;;;;;;;;;;5074444;28;20920;-53
2022/01/10 01:26:36;;;;;;;13.13;8.70;;;;;;;;;;5074331;28;20417;-54
2022/01/10 01:29:03;;;;;;;18.23;8.80;;;;;;;;;;5074061;28;20418;-56
2022/01/10 01:31:29;;;;;;;11.27;7.70;;;;;;;;;;5074002;28;20421;-57
2022/01/10 01:33:55;;;;;;;17.87;8.37;;;;;;;;;;5074084;28;20553;-55
2022/01/10 01:36:24;;;;;;;15.40;8.53;;;;;;;;;;5073827;28;20403;-56
2022/01/10 01:38:50;;;;;;;12.70;8.30;;;;;;;;;;5072498;28;20493;-52
2022/01/10 01:43:46;;;;;;;11.97;8.47;;;;;;;;;;5074076;28;20414;-53
2022/01/10 01:46:12;;;;;;;15.53;9.70;;;;;;;;;;5072429;28;20514;-54
2022/01/10 01:48:38;;;;;;;17.60;8.27;;;;;;;;;;5073602;28;20410;-53
2022/01/10 01:51:04;;;;;;;17.20;8.70;;;;;;;;;;5073524;28;20421;-56
2022/01/10 01:53:31;;;;;;;21.43;9.50;;;;;;;;;;5072323;28;20442;-55
2022/01/10 01:55:58;;;;;;;14.30;9.20;;;;;;;;;;5072354;28;20419;-57
2022/01/10 01:58:25;;;;;;;21.10;9.80;;;;;;;;;;5073421;28;20438;-53
2022/01/10 02:00:51;;;;;;;23.40;9.17;;;;;;;;;;5073348;28;20561;-52
2022/01/10 02:03:17;;;;;;;12.83;9.00;;;;;;;;;;5073438;28;20406;-53
2022/01/10 02:05:43;;;;;;;17.57;9.70;;;;;;;;;;5072517;28;20976;-52
2022/01/10 02:08:09;;;;;;;19.37;10.80;;;;;;;;;;5073328;28;20489;-54
2022/01/10 02:10:35;;;;;;;16.23;9.97;;;;;;;;;;5071826;28;20419;-53
2022/01/10 02:13:01;;;;;;;20.57;11.20;;;;;;;;;;5073072;28;20407;-54
2022/01/10 02:15:57;;;;;;;18.50;11.10;;;;;;;;;;5073271;28;20415;-55
2022/01/10 02:18:24;;;;;;;22.17;10.83;;;;;;;;;;5073107;28;20407;-54
2022/01/10 02:20:50;;;;;;;19.20;11.03;;;;;;;;;;5072632;28;20484;-52
2022/01/10 02:23:17;;;;;;;21.80;11.33;;;;;;;;;;5072024;28;20956;-52
2022/01/10 02:25:43;;;;;;;19.43;11.47;;;;;;;;;;5071143;28;20772;-55
2022/01/10 02:28:09;;;;;;;24.00;11.40;;;;;;;;;;5072454;28;20419;-53
2022/01/10 02:30:35;;;;;;;19.90;10.17;;;;;;;;;;5071488;28;20422;-54
2022/01/10 02:33:02;;;;;;;20.07;11.80;;;;;;;;;;5072735;28;20423;-57
2022/01/10 02:35:33;;;;;;;24.83;12.13;;;;;;;;;;5072782;28;20414;-56
2022/01/10 02:37:59;;;;;;;28.93;10.97;;;;;;;;;;5072941;28;20403;-53
2022/01/10 02:40:27;;;;;;;21.53;12.03;;;;;;;;;;5072515;28;20452;-52
2022/01/10 02:42:54;;;;;;;19.83;10.63;;;;;;;;;;5072644;28;20411;-53
2022/01/10 02:45:20;;;;;;;17.23;10.60;;;;;;;;;;5072444;28;20492;-52
2022/01/10 02:47:47;;;;;;;23.03;11.70;;;;;;;;;;5072636;28;20464;-54
2022/01/10 02:50:14;;;;;;;19.07;11.20;;;;;;;;;;5072983;28;20696;-59
2022/01/10 02:52:40;;;;;;;19.00;11.37;;;;;;;;;;5072437;28;20403;-58
2022/01/10 02:55:06;;;;;;;19.00;11.23;;;;;;;;;;5072321;28;20808;-56
2022/01/10 02:57:33;;;;;;;20.43;11.30;;;;;;;;;;5072331;28;20756;-52
2022/01/10 03:00:00;;;;;;;26.70;12.13;;;;;;;;;;5072223;28;20399;-52
2022/01/10 03:02:31;;;;;;;24.60;10.67;;;;;;;;;;5072131;28;20560;-55
2022/01/10 03:04:57;;;;;;;17.40;9.90;;;;;;;;;;5072595;28;20770;-57
2022/01/10 03:07:23;;;;;;;24.00;10.90;;;;;;;;;;5072315;28;20415;-54
2022/01/10 03:09:50;;;;;;;17.20;10.17;;;;;;;;;;5072002;28;20763;-59
2022/01/10 03:12:16;;;;;;;17.70;9.80;;;;;;;;;;5072340;28;20413;-55
2022/01/10 03:14:43;;;;;;;21.73;10.60;;;;;;;;;;5072451;28;20413;-57
2022/01/10 03:17:10;;;;;;;15.87;10.13;;;;;;;;;;5072145;28;20418;-54
2022/01/10 03:19:36;;;;;;;20.13;11.03;;;;;;;;;;5071955;28;20411;-54
2022/01/10 03:22:02;;;;;;;19.13;9.60;;;;;;;;;;5071834;28;20498;-54
2022/01/10 03:24:28;;;;;;;17.90;10.23;;;;;;;;;;5072125;28;20407;-53
2022/01/10 03:26:54;;;;;;;18.87;9.63;;;;;;;;;;5071932;28;20745;-55
2022/01/10 03:29:20;;;;;;;21.67;10.30;;;;;;;;;;5072007;28;20403;-55
2022/01/10 03:31:46;;;;;;;22.20;10.60;;;;;;;;;;5072158;28;20891;-54
2022/01/10 03:34:13;;;;;;;17.80;10.67;;;;;;;;;;5072271;28;20407;-55
2022/01/10 03:36:43;;;;;;;19.93;10.20;;;;;;;;;;5072114;28;20426;-52
2022/01/10 03:39:09;;;;;;;12.20;8.93;;;;;;;;;;5075485;28;20403;-52
2022/01/10 03:41:36;;;;;;;14.17;8.73;;;;;;;;;;5075994;28;20470;-55
2022/01/10 03:44:02;;;;;;;21.43;10.83;;;;;;;;;;5076008;28;20414;-55
2022/01/10 03:46:28;;;;;;;13.73;9.80;;;;;;;;;;5076188;28;20923;-53
2022/01/10 03:48:54;;;;;;;17.23;9.90;;;;;;;;;;5076223;28;20407;-53
2022/01/10 03:51:20;;;;;;;14.90;10.10;;;;;;;;;;5076057;28;20494;-54
2022/01/10 03:53:46;;;;;;;14.67;9.60;;;;;;;;;;5076194;28;20446;-53
2022/01/10 03:56:12;;;;;;;20.80;10.73;;;;;;;;;;5076041;28;20493;-53
2022/01/10 03:58:38;;;;;;;22.10;9.73;;;;;;;;;;5075710;28;20760;-53
2022/01/10 04:01:08;;;;;;;19.33;9.33;;;;;;;;;;5075588;28;20471;-54
2022/01/10 04:03:34;;;;;;;19.63;10.47;;;;;;;;;;5075534;28;20403;-55
2022/01/10 04:06:00;;;;;;;20.97;10.00;;;;;;;;;;5075644;28;20418;-56
2022/01/10 04:08:26;;;;;;;19.23;10.50;;;;;;;;;;5075524;28;20495;-55
2022/01/10 04:10:52;;;;;;;22.17;11.27;;;;;;;;;;5075667;28;20438;-55
2022/01/10 04:13:18;;;;;;;18.23;10.20;;;;;;;;;;5074423;28;20741;-53
2022/01/10 04:15:44;;;;;;;18.83;10.87;;;;;;;;;;5074432;28;20406;-56
2022/01/10 04:18:10;;;;;;;17.10;10.10;;;;;;;;;;5075415;28;20925;-58
2022/01/10 04:20:36;;;;;;;19.40;10.47;;;;;;;;;;5075054;28;20524;-60
2022/01/10 04:23:03;;;;;;;19.60;10.10;;;;;;;;;;5073947;28;20434;-62
2022/01/10 04:25:29;;;;;;;23.37;10.37;;;;;;;;;;5075295;28;20494;-55
2022/01/10 04:27:55;;;;;;;21.10;9.27;;;;;;;;;;5075483;28;20414;-54
2022/01/10 04:30:21;;;;;;;34.50;10.47;;;;;;;;;;5073821;28;20510;-51
2022/01/10 04:32:47;;;;;;;23.17;9.93;;;;;;;;;;5075087;28;20968;-52
2022/01/10 04:35:13;;;;;;;16.37;10.13;;;;;;;;;;5073812;28;20922;-55
2022/01/10 04:37:39;;;;;;;20.63;10.53;;;;;;;;;;5075032;28;20918;-52
2022/01/10 04:40:07;;;;;;;19.20;10.77;;;;;;;;;;5075244;28;20767;-54
2022/01/10 04:42:33;;;;;;;23.43;10.50;;;;;;;;;;5074639;28;20474;-53
2022/01/10 04:44:59;;;;;;;16.97;11.33;;;;;;;;;;5074749;28;20891;-55
2022/01/10 04:47:25;;;;;;;14.00;7.73;;;;;;;;;;5074765;28;20556;-55
2022/01/10 04:52:26;;;;;;;17.60;9.53;;;;;;;;;;5074967;28;20546;-53
2022/01/10 04:54:52;;;;;;;16.97;10.57;;;;;;;;;;5074602;28;20754;-54
2022/01/10 04:57:18;;;;;;;24.87;12.10;;;;;;;;;;5074550;28;21002;-53
2022/01/10 04:59:44;;;;;;;17.83;10.83;;;;;;;;;;5074701;28;20493;-54
2022/01/10 05:02:10;;;;;;;16.70;9.80;;;;;;;;;;5074379;28;20807;-59
2022/01/10 05:04:36;;;;;;;23.13;9.50;;;;;;;;;;5074492;28;20422;-53
2022/01/10 05:07:02;;;;;;;19.27;10.60;;;;;;;;;;5074386;28;20826;-56
2022/01/10 05:09:28;;;;;;;21.00;10.47;;;;;;;;;;5074232;28;20411;-55
2022/01/10 05:11:55;;;;;;;18.37;10.53;;;;;;;;;;5072898;28;20854;-56
2022/01/10 05:14:21;;;;;;;22.50;11.47;;;;;;;;;;5074631;28;20417;-54
2022/01/10 05:16:47;;;;;;;21.60;11.63;;;;;;;;;;5074264;28;20471;-53
2022/01/10 05:19:13;;;;;;;16.97;11.07;;;;;;;;;;5074470;28;20409;-57
2022/01/10 05:21:39;;;;;;;15.60;9.50;;;;;;;;;;5073941;28;20557;-55
2022/01/10 05:24:07;;;;;;;14.50;9.00;;;;;;;;;;5074027;28;20395;-56
2022/01/10 05:26:33;;;;;;;14.50;10.70;;;;;;;;;;5074099;28;20741;-58
2022/01/10 05:29:00;;;;;;;17.77;9.10;;;;;;;;;;5074064;28;20410;-61
2022/01/10 05:31:26;;;;;;;15.30;10.03;;;;;;;;;;5073931;28;20489;-53
2022/01/10 05:33:52;;;;;;;8.47;6.00;;;;;;;;;;5072846;28;20457;-63
2022/01/10 05:36:18;;;;;;;18.73;10.50;;;;;;;;;;5072162;28;20477;-55
2022/01/10 05:38:45;;;;;;;21.13;10.30;;;;;;;;;;5073810;28;20418;-55
2022/01/10 05:41:11;;;;;;;17.73;9.80;;;;;;;;;;5073496;28;20523;-51
2022/01/10 05:43:37;;;;;;;22.37;11.10;;;;;;;;;;5073521;28;20487;-56
2022/01/10 05:46:06;;;;;;;27.40;10.40;;;;;;;;;;5073569;28;20419;-57
2022/01/10 05:48:33;;;;;;;19.80;10.00;;;;;;;;;;5073593;28;20402;-53
2022/01/10 05:50:59;;;;;;;19.63;10.23;;;;;;;;;;5073953;28;20406;-53
2022/01/10 05:53:26;;;;;;;18.57;10.17;;;;;;;;;;5073274;28;20402;-55
2022/01/10 05:55:52;;;;;;;18.40;10.63;;;;;;;;;;5072064;28;20448;-54
2022/01/10 05:58:18;;;;;;;20.73;9.97;;;;;;;;;;5073044;28;20418;-56
2022/01/10 06:00:44;;;;;;;15.53;8.50;;;;;;;;;;5072744;28;20545;-52
2022/01/10 06:03:10;;;;;;;16.23;10.00;;;;;;;;;;5087612;28;20790;-52
2022/01/10 06:05:37;;;;;;;20.50;9.70;;;;;;;;;;5073136;28;20395;-54
2022/01/10 06:08:04;;;;;;;21.03;10.03;;;;;;;;;;5072983;28;20433;-53
2022/01/10 06:10:30;;;;;;;20.73;10.70;;;;;;;;;;5073009;28;20450;-54
2022/01/10 06:12:57;;;;;;;22.77;10.50;;;;;;;;;;5073287;28;20559;-57
2022/01/10 06:15:23;;;;;;;16.33;10.17;;;;;;;;;;5073047;28;20407;-54
2022/01/10 06:17:50;;;;;;;21.20;10.50;;;;;;;;;;5071802;28;20771;-55
2022/01/10 06:20:16;;;;;;;21.90;9.90;;;;;;;;;;5072664;28;20446;-58
2022/01/10 06:22:42;;;;;;;23.80;10.43;;;;;;;;;;5089015;28;20830;-55
2022/01/10 06:25:10;;;;;;;22.47;11.60;;;;;;;;;;5071625;28;20438;-55
2022/01/10 06:27:36;;;;;;;22.73;11.73;;;;;;;;;;5071725;28;20413;-53
2022/01/10 06:30:04;;;;;;;19.40;11.23;;;;;;;;;;5072077;28;20506;-62
2022/01/10 06:32:38;;;;;;;28.23;11.23;;;;;;;;;;5071478;28;20398;-58
2022/01/10 06:35:04;;;;;;;22.97;11.43;;;;;;;;;;5072820;28;20410;-56
2022/01/10 06:37:30;;;;;;;19.40;11.00;;;;;;;;;;5072316;28;20482;-56
2022/01/10 06:39:56;;;;;;;17.60;11.03;;;;;;;;;;5087938;28;20425;-55
2022/01/10 06:42:22;;;;;;;22.00;10.60;;;;;;;;;;5072250;28;20555;-61
2022/01/10 06:44:48;;;;;;;17.77;10.00;;;;;;;;;;5072542;28;20435;-54
2022/01/10 06:47:14;;;;;;;18.17;10.97;;;;;;;;;;5072595;28;20415;-54
2022/01/10 06:49:40;;;;;;;21.63;10.93;;;;;;;;;;5072320;28;20406;-55
2022/01/10 06:52:06;;;;;;;18.40;10.80;;;;;;;;;;5087910;28;20403;-54
2022/01/10 06:54:32;;;;;;;27.40;12.17;;;;;;;;;;5087767;28;20990;-55
2022/01/10 06:56:58;;;;;;;17.97;10.60;;;;;;;;;;5072082;28;20545;-56
2022/01/10 06:59:25;;;;;;;19.07;11.00;;;;;;;;;;5072106;28;20419;-56
2022/01/10 07:01:51;;;;;;;22.20;10.10;;;;;;;;;;5071647;28;20609;-55
2022/01/10 07:04:17;;;;;;;19.20;11.07;;;;;;;;;;5087661;28;20503;-57
2022/01/10 07:06:44;;;;;;;18.53;10.70;;;;;;;;;;5072369;28;20527;-59
2022/01/10 07:09:09;;;;;;;21.77;10.80;;;;;;;;;;5072260;28;20483;-57
2022/01/10 07:11:36;;;;;;;21.10;10.83;;;;;;;;;;5071907;28;20427;-57
2022/01/10 07:14:02;;;;;;;21.20;10.83;;;;;;;;;;5071726;28;20403;-55
2022/01/10 07:16:28;;;;;;;15.97;9.57;;;;;;;;;;5071907;28;20415;-59
2022/01/10 07:18:54;;;;;;;18.33;10.83;;;;;;;;;;5072125;28;20810;-57
2022/01/10 07:21:20;;;;;;;24.87;10.07;;;;;;;;;;5071776;28;20478;-54
2022/01/10 07:23:48;;;;;;;21.23;11.27;;;;;;;;;;5071896;28;20468;-54
2022/01/10 07:26:14;;;;;;;18.93;11.10;;;;;;;;;;5072399;28;20411;-57
2022/01/10 07:28:40;;;;;;;15.33;9.00;;;;;;;;;;5071852;28;20414;-57
2022/01/10 07:31:06;;;;;;;25.97;11.93;;;;;;;;;;5071761;28;20852;-55
2022/01/10 07:33:32;;;;;;;17.07;10.60;;;;;;;;;;5071934;28;20402;-59
2022/01/10 07:35:58;;;;;;;21.43;11.00;;;;;;;;;;5071939;28;20406;-58
2022/01/10 07:38:24;;;;;;;20.50;10.53;;;;;;;;;;5071622;28;20411;-55
2022/01/10 07:40:50;;;;;;;22.47;10.77;;;;;;;;;;5071737;28;20451;-56
2022/01/10 07:43:16;;;;;;;22.43;10.60;;;;;;;;;;5087275;28;20437;-55
2022/01/10 07:45:42;;;;;;;19.90;11.53;;;;;;;;;;5071992;28;20748;-57
2022/01/10 07:48:09;;;;;;;20.07;11.30;;;;;;;;;;5071761;28;20426;-55
2022/01/10 07:50:35;;;;;;;25.10;11.50;;;;;;;;;;5071555;28;20468;-57
2022/01/10 07:53:01;;;;;;;22.07;10.53;;;;;;;;;;5071603;28;20410;-57
2022/01/10 07:55:27;;;;;;;19.30;10.67;;;;;;;;;;5071695;28;20410;-55
2022/01/10 07:57:53;;;;;;;17.90;11.13;;;;;;;;;;5071726;28;20414;-57
2022/01/10 08:00:19;;;;;;;18.83;9.33;;;;;;;;;;5071637;28;20465;-55
2022/01/10 08:02:45;;;;;;;17.07;10.00;;;;;;;;;;5071783;28;20426;-56
2022/01/10 08:05:11;;;;;;;15.37;9.50;;;;;;;;;;5071449;28;20417;-54
2022/01/10 08:07:37;;;;;;;15.77;9.70;;;;;;;;;;5071571;28;20407;-55
2022/01/10 08:10:04;;;;;;;22.60;11.70;;;;;;;;;;5071643;28;20418;-56
2022/01/10 08:12:30;;;;;;;15.13;10.83;;;;;;;;;;5071629;28;20501;-56
2022/01/10 08:14:56;;;;;;;19.23;11.60;;;;;;;;;;5071667;28;20560;-57
2022/01/10 08:17:22;;;;;;;18.57;11.33;;;;;;;;;;5086971;28;20414;-57
2022/01/10 08:19:48;;;;;;;26.00;12.33;;;;;;;;;;5086878;28;20407;-55
2022/01/10 08:22:14;;;;;;;18.53;11.10;;;;;;;;;;5071497;28;20819;-56
2022/01/10 08:24:40;;;;;;;26.03;10.93;;;;;;;;;;5073835;28;20438;-55
2022/01/10 08:27:06;;;;;;;18.67;11.10;;;;;;;;;;5075093;28;20410;-64
2022/01/10 08:29:32;;;;;;;18.53;10.30;;;;;;;;;;5073855;28;20497;-54
2022/01/10 08:31:59;;;;;;;28.90;11.87;;;;;;;;;;5074413;28;20465;-56
2022/01/10 08:34:25;;;;;;;22.77;11.60;;;;;;;;;;5074034;28;20959;-55
2022/01/10 08:36:54;;;;;;;21.87;11.67;;;;;;;;;;5073888;28;20745;-54
2022/01/10 08:39:20;;;;;;;15.07;11.30;;;;;;;;;;5073692;28;20434;-53
2022/01/10 08:41:47;;;;;;;19.13;11.03;;;;;;;;;;5073714;28;20796;-53
2022/01/10 08:44:17;;;;;;;25.00;11.20;;;;;;;;;;5073584;28;20410;-58
2022/01/10 08:46:43;;;;;;;20.93;11.70;;;;;;;;;;5074078;28;20415;-55
2022/01/10 08:49:12;;;;;;;23.90;11.87;;;;;;;;;;5073900;28;20411;-55
2022/01/10 08:51:39;;;;;;;23.90;11.80;;;;;;;;;;5074019;28;20411;-54
2022/01/10 08:54:05;;;;;;;14.17;10.57;;;;;;;;;;5072353;28;20779;-55
2022/01/10 08:56:32;;;;;;;14.33;10.40;;;;;;;;;;5073822;28;20417;-56
2022/01/10 08:58:58;;;;;;;33.13;11.87;;;;;;;;;;5076422;28;20929;-54
2022/01/10 09:01:24;;;;;;;25.53;11.70;;;;;;;;;;5072329;28;20458;-54
2022/01/10 09:03:51;;;;;;;18.00;11.07;;;;;;;;;;5072435;28;20850;-52
2022/01/10 09:06:17;;;;;;;23.93;11.23;;;;;;;;;;5072923;28;20417;-52
2022/01/10 09:08:43;;;;;;;26.80;12.10;;;;;;;;;;5072311;28;20437;-56
2022/01/10 09:11:10;;;;;;;20.13;11.23;;;;;;;;;;5070620;28;20421;-53
2022/01/10 09:13:36;;;;;;;22.73;11.50;;;;;;;;;;5071554;28;20779;-53
2022/01/10 09:16:02;;;;;;;26.80;11.60;;;;;;;;;;5070028;28;20422;-53
2022/01/10 09:18:29;;;;;;;23.07;13.07;;;;;;;;;;5069337;28;20589;-53
2022/01/10 09:20:55;;;;;;;24.53;11.00;;;;;;;;;;5070491;28;20473;-52
2022/01/10 09:23:22;;;;;;;28.17;11.60;;;;;;;;;;5071120;28;20800;-53
2022/01/10 09:25:49;;;;;;;27.40;13.10;;;;;;;;;;5070907;28;20417;-54
2022/01/10 09:28:15;;;;;;;28.60;10.83;;;;;;;;;;5070522;28;20422;-53
2022/01/10 09:30:41;;;;;;;18.57;10.90;;;;;;;;;;5070443;28;20418;-53
2022/01/10 09:33:07;;;;;;;23.37;11.97;;;;;;;;;;5073284;28;20417;-52
2022/01/10 09:35:33;;;;;;;16.60;10.40;;;;;;;;;;5070571;28;20415;-54
2022/01/10 09:37:59;;;;;;;26.00;11.40;;;;;;;;;;5070517;28;20415;-53
2022/01/10 09:40:25;;;;;;;21.20;11.73;;;;;;;;;;5070531;28;20454;-54
2022/01/10 09:42:51;;;;;;;27.53;11.43;;;;;;;;;;5069979;28;20458;-56
2022/01/10 09:45:18;;;;;;;26.70;12.27;;;;;;;;;;5070916;28;20524;-54
2022/01/10 09:47:44;;;;;;;21.63;10.57;;;;;;;;;;5070745;28;20418;-51
2022/01/10 09:50:11;;;;;;;25.47;11.60;;;;;;;;;;5070315;28;21021;-55
2022/01/10 09:52:38;;;;;;;21.03;10.93;;;;;;;;;;5069567;28;20419;-54
2022/01/10 09:55:05;;;;;;;23.20;12.37;;;;;;;;;;5071209;28;20398;-55
2022/01/10 09:57:31;;;;;;;23.03;12.00;;;;;;;;;;5070527;28;20421;-55
2022/01/10 09:59:57;;;;;;;26.53;12.60;;;;;;;;;;5070564;28;20903;-55
2022/01/10 10:02:30;;;;;;;21.70;11.60;;;;;;;;;;5070108;28;21004;-57
2022/01/10 10:04:56;;;;;;;26.77;12.07;;;;;;;;;;5070027;28;21036;-55
2022/01/10 10:07:23;;;;;;;24.90;12.97;;;;;;;;;;5071035;28;20629;-55
2022/01/10 10:09:49;;;;;;;32.60;11.37;;;;;;;;;;5070081;28;20917;-56
2022/01/10 10:12:15;;;;;;;22.73;12.17;;;;;;;;;;5070111;28;20497;-58
2022/01/10 10:14:45;;;;;;;26.47;13.57;;;;;;;;;;5070554;28;20906;-54
2022/01/10 10:17:17;;;;;;;20.00;11.23;;;;;;;;;;5070301;28;20505;-53
2022/01/10 10:19:43;;;;;;;25.37;12.60;;;;;;;;;;5070260;28;20411;-55
2022/01/10 10:22:09;;;;;;;25.33;12.60;;;;;;;;;;5069500;28;20807;-56
2022/01/10 10:24:35;;;;;;;18.80;11.33;;;;;;;;;;5070013;28;20937;-54
2022/01/10 10:27:01;;;;;;;23.07;11.70;;;;;;;;;;5070051;28;20407;-54
2022/01/10 10:29:27;;;;;;;32.63;12.60;;;;;;;;;;5070216;28;20399;-53
2022/01/10 10:31:55;;;;;;;23.47;12.50;;;;;;;;;;5070580;28;20486;-54
2022/01/10 10:34:22;;;;;;;27.63;11.97;;;;;;;;;;5069659;28;20412;-54
2022/01/10 10:37:08;;;;;;;27.50;12.40;;;;;;;;;;5069994;28;20415;-54
2022/01/10 10:39:36;;;;;;;28.73;12.83;;;;;;;;;;5070095;28;20418;-52
2022/01/10 10:42:03;;;;;;;28.03;12.20;;;;;;;;;;5069711;28;20474;-55
2022/01/10 10:44:29;;;;;;;27.23;13.97;;;;;;;;;;5069839;28;20406;-53
2022/01/10 10:46:56;;;;;;;32.53;13.10;;;;;;;;;;5069108;28;20805;-55
2022/01/10 10:49:30;;;;;;;36.23;14.13;;;;;;;;;;5069175;28;20410;-54
2022/01/10 10:51:56;;;;;;;36.13;14.20;;;;;;;;;;5069853;28;20756;-57
2022/01/10 10:54:23;;;;;;;34.83;15.27;;;;;;;;;;5070036;28;20407;-52
2022/01/10 10:56:50;;;;;;;34.70;14.83;;;;;;;;;;5070100;28;20395;-55
2022/01/10 10:59:16;;;;;;;28.17;15.10;;;;;;;;;;5069709;28;20411;-53
2022/01/10 11:01:43;;;;;;;36.00;16.00;;;;;;;;;;5069890;28;20523;-53
2022/01/10 11:04:09;;;;;;;31.47;14.70;;;;;;;;;;5069694;28;20421;-54
2022/01/10 11:06:36;;;;;;;37.90;17.10;;;;;;;;;;5069578;28;20418;-55
2022/01/10 11:09:04;;;;;;;36.10;16.17;;;;;;;;;;5069657;28;20411;-55
2022/01/10 11:11:30;;;;;;;31.30;14.90;;;;;;;;;;5069639;28;20411;-56
2022/01/10 11:13:57;;;;;;;36.17;15.30;;;;;;;;;;5069527;28;20422;-54
2022/01/10 11:16:26;;;;;;;37.40;15.83;;;;;;;;;;5069209;28;20419;-53
2022/01/10 11:18:52;;;;;;;29.30;15.83;;;;;;;;;;5069415;28;20437;-55
2022/01/10 11:21:18;;;;;;;33.67;16.40;;;;;;;;;;5068961;28;20471;-54
2022/01/10 11:23:45;;;;;;;52.57;16.43;;;;;;;;;;5069606;28;20866;-57
2022/01/10 11:26:12;;;;;;;45.53;17.00;;;;;;;;;;5069933;28;20456;-55
2022/01/10 11:28:49;;;;;;;29.30;15.10;;;;;;;;;;5069320;28;20395;-54
2022/01/10 11:31:20;;;;;;;35.27;16.20;;;;;;;;;;5067907;28;20395;-56
2022/01/10 11:33:46;;;;;;;37.40;15.30;;;;;;;;;;5068943;28;20411;-55
2022/01/10 11:36:13;;;;;;;35.97;16.20;;;;;;;;;;5069166;28;20403;-54
2022/01/10 11:38:50;;;;;;;30.27;15.17;;;;;;;;;;5069442;28;20449;-54
2022/01/10 11:41:17;;;;;;;26.23;14.43;;;;;;;;;;5068707;28;20469;-53
2022/01/10 11:43:44;;;;;;;27.47;14.93;;;;;;;;;;5069296;28;20414;-53
2022/01/10 11:46:20;;;;;;;31.70;15.30;;;;;;;;;;5068913;28;20756;-54
2022/01/10 11:48:48;;;;;;;36.93;15.67;;;;;;;;;;5068871;28;20406;-54
2022/01/10 11:51:15;;;;;;;32.77;15.43;;;;;;;;;;5069705;28;20403;-56
2022/01/10 11:53:42;;;;;;;37.20;15.33;;;;;;;;;;5069680;28;20748;-53
2022/01/10 11:56:19;;;;;;;34.07;16.10;;;;;;;;;;5069448;28;20413;-55
2022/01/10 11:59:05;;;;;;;35.40;16.23;;;;;;;;;;5070438;28;20795;-55
2022/01/10 12:01:38;;;;;;;38.33;15.93;;;;;;;;;;5072722;28;20466;-57
2022/01/10 12:04:04;;;;;;;29.83;15.40;;;;;;;;;;5073063;28;20713;-54
2022/01/10 12:06:30;;;;;;;31.00;15.37;;;;;;;;;;5073167;28;20446;-55
2022/01/10 12:08:56;;;;;;;33.13;15.00;;;;;;;;;;5072958;28;20891;-56
2022/01/10 12:11:24;;;;;;;38.07;15.37;;;;;;;;;;5072328;28;20418;-57
2022/01/10 12:13:52;;;;;;;28.23;14.20;;;;;;;;;;5071488;28;20414;-59
2022/01/10 12:16:18;;;;;;;27.07;14.97;;;;;;;;;;5072606;28;20983;-56
2022/01/10 12:18:44;;;;;;;31.97;15.43;;;;;;;;;;5071771;28;20472;-56
2022/01/10 12:21:10;;;;;;;31.13;16.63;;;;;;;;;;5071457;28;20470;-56
2022/01/10 12:23:36;;;;;;;29.40;14.67;;;;;;;;;;5072438;28;20461;-55
2022/01/10 12:26:02;;;;;;;32.40;15.10;;;;;;;;;;5072421;28;20918;-60
2022/01/10 12:28:29;;;;;;;27.27;14.00;;;;;;;;;;5072171;28;20414;-55
2022/01/10 12:30:57;;;;;;;32.33;15.43;;;;;;;;;;5072552;28;20418;-55
2022/01/10 12:33:23;;;;;;;29.83;15.77;;;;;;;;;;5073032;28;20472;-57
2022/01/10 12:35:49;;;;;;;32.60;14.90;;;;;;;;;;5072346;28;20411;-57
2022/01/10 12:38:19;;;;;;;30.43;14.23;;;;;;;;;;5072185;28;20421;-53
2022/01/10 12:40:46;;;;;;;29.33;14.50;;;;;;;;;;5072396;28;20501;-53
2022/01/10 12:43:12;;;;;;;37.10;16.20;;;;;;;;;;5072261;28;20838;-55
2022/01/10 12:45:38;;;;;;;32.60;14.60;;;;;;;;;;5072309;28;20442;-55
2022/01/10 12:48:04;;;;;;;34.93;15.83;;;;;;;;;;5071966;28;20410;-52
2022/01/10 12:50:32;;;;;;;28.40;15.07;;;;;;;;;;5071940;28;20772;-52
2022/01/10 12:52:58;;;;;;;25.10;13.10;;;;;;;;;;5070833;28;20479;-53
2022/01/10 12:55:24;;;;;;;24.00;13.13;;;;;;;;;;5072186;28;20403;-53
2022/01/10 12:57:51;;;;;;;30.70;14.00;;;;;;;;;;5072217;28;20430;-55
2022/01/10 13:00:17;;;;;;;24.90;13.33;;;;;;;;;;5072198;28;20398;-54
2022/01/10 13:02:43;;;;;;;25.83;14.10;;;;;;;;;;5072258;28;20462;-53
2022/01/10 13:05:11;;;;;;;20.30;11.83;;;;;;;;;;5072259;28;20407;-53
2022/01/10 13:07:39;;;;;;;29.43;13.83;;;;;;;;;;5071308;28;20403;-55
2022/01/10 13:10:08;;;;;;;31.40;14.23;;;;;;;;;;5070297;28;20415;-55
2022/01/10 13:12:35;;;;;;;22.70;13.00;;;;;;;;;;5069885;28;20403;-55
2022/01/10 13:15:11;;;;;;;22.40;12.33;;;;;;;;;;5066206;28;20441;-58
2022/01/10 13:17:37;;;;;;;30.80;13.57;;;;;;;;;;5071250;28;20410;-56
2022/01/10 13:20:06;;;;;;;28.30;13.10;;;;;;;;;;5070626;28;20419;-54
2022/01/10 13:22:34;;;;;;;31.83;14.77;;;;;;;;;;5069689;28;20478;-51
2022/01/10 13:25:00;;;;;;;32.40;14.20;;;;;;;;;;5070787;28;20731;-53
2022/01/10 13:27:34;;;;;;;36.90;15.10;;;;;;;;;;5070457;28;20745;-52
2022/01/10 13:30:14;;;;;;;26.70;14.00;;;;;;;;;;5070826;28;20413;-52
2022/01/10 13:32:42;;;;;;;26.40;13.87;;;;;;;;;;5086591;28;20902;-55
2022/01/10 13:35:09;;;;;;;25.33;13.00;;;;;;;;;;5071035;28;20742;-56
2022/01/10 13:37:41;;;;;;;22.27;12.90;;;;;;;;;;5070692;28;20830;-56
2022/01/10 13:40:10;;;;;;;24.20;13.27;;;;;;;;;;5070521;28;20461;-55
2022/01/10 13:42:50;;;;;;;26.17;14.27;;;;;;;;;;5069500;28;20466;-56
2022/01/10 13:45:16;;;;;;;28.67;14.00;;;;;;;;;;5069906;28;20438;-54
2022/01/10 13:47:54;;;;;;;36.83;15.80;;;;;;;;;;5070218;28;20790;-53
2022/01/10 13:50:21;;;;;;;24.43;14.57;;;;;;;;;;5067233;28;20410;-55
2022/01/10 13:53:07;;;;;;;28.43;15.70;;;;;;;;;;5071431;28;20891;-53
2022/01/10 13:55:34;;;;;;;34.10;16.03;;;;;;;;;;5070788;28;20865;-54
2022/01/10 13:58:00;;;;;;;31.40;16.27;;;;;;;;;;5071339;28;20443;-54
2022/01/10 14:00:27;;;;;;;27.20;15.10;;;;;;;;;;5071773;28;20442;-56
2022/01/10 14:02:54;;;;;;;30.27;16.77;;;;;;;;;;5071699;28;20466;-56
2022/01/10 14:05:21;;;;;;;30.27;15.40;;;;;;;;;;5070664;28;20525;-58
2022/01/10 14:07:47;;;;;;;27.87;15.20;;;;;;;;;;5072558;28;20446;-56
2022/01/10 14:10:13;;;;;;;30.77;15.63;;;;;;;;;;5070337;28;20911;-56
2022/01/10 14:12:39;;;;;;;33.43;15.20;;;;;;;;;;5070605;28;20430;-56
2022/01/10 14:15:05;;;;;;;34.50;16.10;;;;;;;;;;5071128;28;20403;-56
2022/01/10 14:17:31;;;;;;;36.40;17.10;;;;;;;;;;5070685;28;20454;-55
2022/01/10 14:19:57;;;;;;;32.40;14.63;;;;;;;;;;5070252;28;20438;-55
2022/01/10 14:22:24;;;;;;;27.00;15.83;;;;;;;;;;5070147;28;20466;-55
2022/01/10 14:24:50;;;;;;;35.50;16.10;;;;;;;;;;5068603;28;20410;-58
2022/01/10 14:27:16;;;;;;;39.50;17.47;;;;;;;;;;5070086;28;20740;-56
2022/01/10 14:29:42;;;;;;;31.70;15.67;;;;;;;;;;5070632;28;20975;-55
2022/01/10 14:32:09;;;;;;;38.30;17.57;;;;;;;;;;5070353;28;20497;-57